Time;durP1;ratioP1;P1;durP2;ratioP2;P2;SDS_P1;SDS_P2;PMS_P1;PMS_P2;Temp;Humidity;BMP_temperature;BMP_pressure;BME280_temperature;BME280_humidity;BME280_pressure;Samples;Min_cycle;Max_cycle;Signal;HPM_P1;HPM_P2
2023/04/17 00:00:35;;;;;;;;;;;9.80;99.90;;;;;;5097939;28;19908;-59
2023/04/17 00:03:00;;;;;;;;;;;9.80;99.90;;;;;;5098228;28;19969;-59
2023/04/17 00:05:26;;;;;;;;;;;9.80;99.90;;;;;;5098305;28;19947;-59
2023/04/17 00:07:53;;;;;;;;;;;9.80;99.90;;;;;;5097736;28;19947;-59
2023/04/17 00:10:18;;;;;;;;;;;9.10;99.90;;;;;;5098096;28;19957;-59
2023/04/17 00:12:44;;;;;;;;;;;9.80;99.90;;;;;;5097947;28;19908;-59
2023/04/17 00:15:10;;;;;;;;;;;9.80;99.90;;;;;;5098116;28;20296;-59
2023/04/17 00:17:36;;;;;;;;;;;9.70;99.90;;;;;;5098034;28;19908;-59
2023/04/17 00:20:06;;;;;;;;;;;9.80;99.90;;;;;;5098274;28;20004;-59
2023/04/17 00:22:32;;;;;;;;;;;9.70;99.90;;;;;;5098303;28;19908;-59
2023/04/17 00:24:58;;;;;;;;;;;9.70;99.90;;;;;;5097977;28;19955;-60
2023/04/17 00:27:24;;;;;;;;;;;9.60;99.90;;;;;;5097874;28;20406;-59
2023/04/17 00:29:49;;;;;;;;;;;9.70;99.90;;;;;;5098205;28;19913;-59
2023/04/17 00:32:15;;;;;;;;;;;9.50;99.90;;;;;;5097857;28;20397;-59
2023/04/17 00:34:41;;;;;;;;;;;9.60;99.90;;;;;;5098039;28;19909;-59
2023/04/17 00:37:06;;;;;;;;;;;9.50;99.90;;;;;;5097576;28;19914;-59
2023/04/17 00:39:32;;;;;;;;;;;9.50;99.90;;;;;;5097728;28;19947;-59
2023/04/17 00:41:57;;;;;;;;;;;9.50;99.90;;;;;;5100167;28;19909;-59
2023/04/17 00:44:23;;;;;;;;;;;9.50;99.90;;;;;;5101817;28;20275;-59
2023/04/17 00:46:49;;;;;;;;;;;9.40;99.90;;;;;;5101579;28;19908;-59
2023/04/17 00:49:14;;;;;;;;;;;9.40;99.90;;;;;;5101507;28;19908;-59
2023/04/17 00:51:40;;;;;;;;;;;9.40;99.90;;;;;;5101692;28;19908;-59
2023/04/17 00:54:06;;;;;;;;;;;9.40;99.90;;;;;;5101875;28;19934;-59
2023/04/17 00:56:32;;;;;;;;;;;9.40;99.90;;;;;;5101434;28;20359;-59
2023/04/17 00:58:58;;;;;;;;;;;9.30;99.90;;;;;;5101855;28;19908;-59
2023/04/17 01:01:23;;;;;;;;;;;9.30;99.90;;;;;;5101371;28;20328;-59
2023/04/17 01:03:49;;;;;;;;;;;9.20;99.90;;;;;;5101450;28;19948;-59
2023/04/17 01:06:16;;;;;;;;;;;9.30;99.90;;;;;;5101118;28;19912;-59
2023/04/17 01:08:42;;;;;;;;;;;9.40;99.90;;;;;;5101246;28;19908;-59
2023/04/17 01:11:10;;;;;;;;;;;9.30;99.90;;;;;;5101165;28;19908;-59
2023/04/17 01:13:43;;;;;;;;;;;9.30;99.90;;;;;;5101282;28;19908;-59
2023/04/17 01:16:08;;;;;;;;;;;9.30;99.90;;;;;;5101214;28;19967;-59
2023/04/17 01:18:34;;;;;;;;;;;9.30;99.90;;;;;;5100899;28;20402;-59
2023/04/17 01:21:02;;;;;;;;;;;9.30;99.90;;;;;;5100693;28;19908;-59
2023/04/17 01:23:28;;;;;;;;;;;9.40;99.90;;;;;;5100721;28;19995;-59
2023/04/17 01:25:53;;;;;;;;;;;9.30;99.90;;;;;;5101169;28;19908;-59
2023/04/17 01:28:19;;;;;;;;;;;9.10;99.90;;;;;;5101060;28;20390;-59
2023/04/17 01:30:45;;;;;;;;;;;9.30;99.90;;;;;;5100946;28;19915;-60
2023/04/17 01:33:11;;;;;;;;;;;9.20;99.90;;;;;;5100763;28;19995;-59
2023/04/17 01:35:36;;;;;;;;;;;9.20;99.90;;;;;;5100701;28;19915;-59
2023/04/17 01:38:02;;;;;;;;;;;9.20;99.90;;;;;;5101137;28;19991;-59
2023/04/17 01:40:27;;;;;;;;;;;9.20;99.90;;;;;;5100535;28;19947;-59
2023/04/17 01:42:53;;;;;;;;;;;9.20;99.90;;;;;;5100983;28;20263;-59
2023/04/17 01:45:20;;;;;;;;;;;9.20;99.90;;;;;;5100361;28;20348;-59
2023/04/17 01:47:46;;;;;;;;;;;9.10;99.90;;;;;;5100251;28;20407;-59
2023/04/17 01:50:11;;;;;;;;;;;9.10;99.90;;;;;;5100619;28;19934;-59
2023/04/17 01:52:38;;;;;;;;;;;9.10;99.90;;;;;;5099392;28;19908;-59
2023/04/17 01:55:04;;;;;;;;;;;9.00;99.90;;;;;;5100161;28;19908;-59
2023/04/17 01:57:31;;;;;;;;;;;9.00;99.90;;;;;;5100261;28;19940;-59
2023/04/17 01:59:57;;;;;;;;;;;9.00;99.90;;;;;;5100561;28;19912;-59
2023/04/17 02:02:22;;;;;;;;;;;9.00;99.90;;;;;;5098876;28;19942;-59
2023/04/17 02:04:48;;;;;;;;;;;9.00;99.90;;;;;;5100538;28;19912;-58
2023/04/17 02:07:14;;;;;;;;;;;9.00;99.90;;;;;;5100311;28;19908;-59
2023/04/17 02:09:39;;;;;;;;;;;8.90;99.90;;;;;;5099825;28;20347;-59
2023/04/17 02:12:05;;;;;;;;;;;9.00;99.90;;;;;;5099978;28;19973;-59
2023/04/17 02:14:31;;;;;;;;;;;9.10;99.90;;;;;;5099721;28;19908;-59
2023/04/17 02:16:57;;;;;;;;;;;9.00;99.90;;;;;;5099884;28;19912;-59
2023/04/17 02:19:22;;;;;;;;;;;9.00;99.90;;;;;;5099868;28;20030;-59
2023/04/17 02:21:48;;;;;;;;;;;9.00;99.90;;;;;;5100215;28;19961;-59
2023/04/17 02:24:13;;;;;;;;;;;9.00;99.90;;;;;;5099793;28;19912;-59
2023/04/17 02:26:39;;;;;;;;;;;9.00;99.90;;;;;;5099613;28;19924;-59
2023/04/17 02:29:05;;;;;;;;;;;9.00;99.90;;;;;;5099612;28;19975;-59
2023/04/17 02:31:30;;;;;;;;;;;8.90;99.90;;;;;;5099866;28;19909;-59
2023/04/17 02:33:56;;;;;;;;;;;8.80;99.90;;;;;;5099509;28;20404;-59
2023/04/17 02:36:22;;;;;;;;;;;8.90;99.90;;;;;;5099886;28;19908;-59
2023/04/17 02:38:47;;;;;;;;;;;8.90;99.90;;;;;;5099631;28;19916;-59
2023/04/17 02:41:13;;;;;;;;;;;8.90;99.90;;;;;;5099691;28;20010;-59
2023/04/17 02:43:38;;;;;;;;;;;8.80;99.90;;;;;;5099315;28;19977;-59
2023/04/17 02:46:04;;;;;;;;;;;8.80;99.90;;;;;;5099144;28;19915;-59
2023/04/17 02:48:30;;;;;;;;;;;8.70;99.90;;;;;;5099497;28;19916;-59
2023/04/17 02:50:55;;;;;;;;;;;8.70;99.90;;;;;;5099500;28;19913;-59
2023/04/17 02:53:21;;;;;;;;;;;8.70;99.90;;;;;;5099164;28;19908;-59
2023/04/17 02:55:46;;;;;;;;;;;8.70;99.90;;;;;;5099523;28;19961;-59
2023/04/17 02:58:12;;;;;;;;;;;8.70;99.90;;;;;;5099375;28;19915;-59
2023/04/17 03:00:38;;;;;;;;;;;8.50;99.90;;;;;;5099567;28;19943;-59
2023/04/17 03:03:03;;;;;;;;;;;8.60;99.90;;;;;;5099605;28;19952;-59
2023/04/17 03:05:29;;;;;;;;;;;8.60;99.90;;;;;;5098515;28;20340;-59
2023/04/17 03:07:56;;;;;;;;;;;8.60;99.90;;;;;;5098919;28;20324;-59
2023/04/17 03:10:21;;;;;;;;;;;8.60;99.90;;;;;;5099164;28;19908;-59
2023/04/17 03:12:47;;;;;;;;;;;8.50;99.90;;;;;;5098832;28;19915;-59
2023/04/17 03:15:13;;;;;;;;;;;8.50;99.90;;;;;;5099152;28;20248;-59
2023/04/17 03:17:38;;;;;;;;;;;8.50;99.90;;;;;;5098947;28;19912;-59
2023/04/17 03:20:06;;;;;;;;;;;8.40;99.90;;;;;;5098850;28;19908;-59
2023/04/17 03:22:32;;;;;;;;;;;8.40;99.90;;;;;;5098568;28;19914;-59
2023/04/17 03:24:58;;;;;;;;;;;8.40;99.90;;;;;;5098751;28;19994;-59
2023/04/17 03:27:23;;;;;;;;;;;8.50;99.90;;;;;;5098485;28;19941;-59
2023/04/17 03:29:50;;;;;;;;;;;8.50;99.90;;;;;;5098681;28;20014;-59
2023/04/17 03:32:16;;;;;;;;;;;8.40;99.90;;;;;;5098678;28;20291;-59
2023/04/17 03:34:41;;;;;;;;;;;8.40;99.90;;;;;;5098645;28;19908;-59
2023/04/17 03:37:07;;;;;;;;;;;8.40;99.90;;;;;;5098423;28;19908;-59
2023/04/17 03:39:32;;;;;;;;;;;8.40;99.90;;;;;;5098402;28;19908;-59
2023/04/17 03:41:58;;;;;;;;;;;8.40;99.90;;;;;;5098591;28;19908;-59
2023/04/17 03:44:24;;;;;;;;;;;8.40;99.90;;;;;;5098438;28;20381;-59
2023/04/17 03:46:49;;;;;;;;;;;8.40;99.90;;;;;;5098342;28;19913;-59
2023/04/17 03:49:15;;;;;;;;;;;8.40;99.90;;;;;;5098232;28;19999;-59
2023/04/17 03:51:41;;;;;;;;;;;8.40;99.90;;;;;;5098012;28;19914;-59
2023/04/17 03:54:07;;;;;;;;;;;8.40;99.90;;;;;;5098053;28;19948;-59
2023/04/17 03:56:33;;;;;;;;;;;8.40;99.90;;;;;;5096736;28;19912;-59
2023/04/17 03:58:58;;;;;;;;;;;8.30;99.90;;;;;;5098168;28;19908;-59
2023/04/17 04:01:27;;;;;;;;;;;8.30;99.90;;;;;;5098257;28;19954;-59
2023/04/17 04:03:53;;;;;;;;;;;8.30;99.90;;;;;;5098105;28;19919;-59
2023/04/17 04:06:19;;;;;;;;;;;8.30;99.90;;;;;;5098083;28;19987;-59
2023/04/17 04:08:45;;;;;;;;;;;8.30;99.90;;;;;;5098414;28;19944;-59
2023/04/17 04:11:10;;;;;;;;;;;8.20;99.90;;;;;;5098192;28;20359;-59
2023/04/17 04:13:36;;;;;;;;;;;8.10;99.90;;;;;;5098403;28;19915;-59
2023/04/17 04:16:02;;;;;;;;;;;8.10;99.90;;;;;;5098673;28;19915;-59
2023/04/17 04:18:27;;;;;;;;;;;8.20;99.90;;;;;;5102696;28;19908;-59
2023/04/17 04:20:53;;;;;;;;;;;8.00;99.90;;;;;;5102103;28;19920;-59
2023/04/17 04:23:19;;;;;;;;;;;8.00;99.90;;;;;;5102251;28;19908;-59
2023/04/17 04:25:48;;;;;;;;;;;8.00;99.90;;;;;;5102179;28;19916;-59
2023/04/17 04:28:14;;;;;;;;;;;8.00;99.90;;;;;;5101820;28;19924;-59
2023/04/17 04:30:39;;;;;;;;;;;8.00;99.90;;;;;;5102276;28;20295;-59
2023/04/17 04:33:07;;;;;;;;;;;8.00;99.90;;;;;;5101807;28;19908;-59
2023/04/17 04:35:32;;;;;;;;;;;8.00;99.90;;;;;;5101632;28;19909;-59
2023/04/17 04:38:01;;;;;;;;;;;8.00;99.90;;;;;;5102188;28;19908;-59
2023/04/17 04:40:27;;;;;;;;;;;8.00;99.90;;;;;;5101571;28;20289;-59
2023/04/17 04:42:54;;;;;;;;;;;7.90;99.90;;;;;;5102131;28;20023;-59
2023/04/17 04:45:20;;;;;;;;;;;8.00;99.90;;;;;;5101672;28;20006;-59
2023/04/17 04:47:45;;;;;;;;;;;8.00;99.90;;;;;;5102052;28;19936;-59
2023/04/17 04:50:11;;;;;;;;;;;7.80;99.90;;;;;;5101705;28;19908;-59
2023/04/17 04:52:37;;;;;;;;;;;8.00;99.90;;;;;;5101765;28;19914;-59
2023/04/17 04:55:02;;;;;;;;;;;8.10;99.90;;;;;;5101682;28;20371;-59
2023/04/17 04:57:28;;;;;;;;;;;8.00;99.90;;;;;;5101698;28;19908;-59
2023/04/17 04:59:54;;;;;;;;;;;7.90;99.90;;;;;;5101453;28;19908;-59
2023/04/17 05:02:19;;;;;;;;;;;7.90;99.90;;;;;;5101534;28;19908;-59
2023/04/17 05:04:45;;;;;;;;;;;8.00;99.90;;;;;;5101480;28;19933;-59
2023/04/17 05:07:11;;;;;;;;;;;7.90;99.90;;;;;;5101206;28;20264;-59
2023/04/17 05:09:36;;;;;;;;;;;7.90;99.90;;;;;;5101445;28;19908;-59
2023/04/17 05:12:02;;;;;;;;;;;7.90;99.90;;;;;;5101140;28;19908;-59
2023/04/17 05:14:28;;;;;;;;;;;7.90;99.90;;;;;;5101632;28;19908;-59
2023/04/17 05:16:54;;;;;;;;;;;7.90;99.90;;;;;;5101307;28;20275;-59
2023/04/17 05:19:20;;;;;;;;;;;7.80;99.90;;;;;;5099274;28;19956;-59
2023/04/17 05:21:46;;;;;;;;;;;7.80;99.90;;;;;;5101214;28;19908;-59
2023/04/17 05:24:11;;;;;;;;;;;7.80;99.90;;;;;;5101141;28;20318;-59
2023/04/17 05:26:37;;;;;;;;;;;7.80;99.90;;;;;;5100429;28;19924;-59
2023/04/17 05:29:02;;;;;;;;;;;7.80;99.90;;;;;;5101072;28;19951;-59
2023/04/17 05:31:28;;;;;;;;;;;7.80;99.90;;;;;;5101015;28;19929;-59
2023/04/17 05:33:54;;;;;;;;;;;7.80;99.90;;;;;;5100972;28;19908;-59
2023/04/17 05:36:21;;;;;;;;;;;7.80;99.90;;;;;;5100792;28;19908;-59
2023/04/17 05:38:46;;;;;;;;;;;7.70;99.90;;;;;;5099263;28;19908;-59
2023/04/17 05:41:12;;;;;;;;;;;7.80;99.90;;;;;;5100606;28;19916;-59
2023/04/17 05:43:38;;;;;;;;;;;7.70;99.90;;;;;;5100753;28;19939;-59
2023/04/17 05:46:03;;;;;;;;;;;7.80;99.90;;;;;;5100715;28;19908;-59
2023/04/17 05:48:29;;;;;;;;;;;7.80;99.90;;;;;;5100495;28;19928;-59
2023/04/17 05:50:55;;;;;;;;;;;7.90;99.90;;;;;;5099130;28;19908;-59
2023/04/17 05:53:21;;;;;;;;;;;7.90;99.90;;;;;;5100944;28;19908;-59
2023/04/17 05:55:46;;;;;;;;;;;7.80;99.90;;;;;;5100787;28;19915;-59
2023/04/17 05:58:12;;;;;;;;;;;7.90;99.90;;;;;;5100240;28;19916;-59
2023/04/17 06:00:37;;;;;;;;;;;7.80;99.90;;;;;;5100585;28;19909;-59
2023/04/17 06:03:04;;;;;;;;;;;7.90;99.90;;;;;;5100212;28;19908;-59
2023/04/17 06:05:30;;;;;;;;;;;7.90;99.90;;;;;;5099856;28;20381;-59
2023/04/17 06:07:56;;;;;;;;;;;8.10;99.90;;;;;;5100036;28;19995;-59
2023/04/17 06:10:21;;;;;;;;;;;8.10;99.90;;;;;;5100286;28;19908;-59
2023/04/17 06:12:47;;;;;;;;;;;8.10;99.90;;;;;;5099961;28;19930;-59
2023/04/17 06:15:12;;;;;;;;;;;8.20;99.90;;;;;;5099538;28;19944;-59
2023/04/17 06:17:38;;;;;;;;;;;8.20;99.90;;;;;;5099582;28;20419;-59
2023/04/17 06:20:08;;;;;;;;;;;8.30;99.90;;;;;;5099685;28;19971;-59
2023/04/17 06:22:38;;;;;;;;;;;8.30;99.90;;;;;;5099578;28;20378;-59
2023/04/17 06:25:03;;;;;;;;;;;8.50;99.90;;;;;;5099781;28;20367;-59
2023/04/17 06:27:29;;;;;;;;;;;8.50;99.90;;;;;;5099429;28;19924;-59
2023/04/17 06:29:55;;;;;;;;;;;8.50;99.90;;;;;;5099561;28;19915;-61
2023/04/17 06:32:20;;;;;;;;;;;8.40;99.90;;;;;;5099441;28;19908;-59
2023/04/17 06:34:46;;;;;;;;;;;8.50;99.90;;;;;;5099124;28;19908;-59
2023/04/17 06:37:12;;;;;;;;;;;8.60;99.90;;;;;;5099551;28;19912;-59
2023/04/17 06:39:37;;;;;;;;;;;8.70;99.90;;;;;;5098521;28;19916;-59
2023/04/17 06:42:05;;;;;;;;;;;8.80;99.90;;;;;;5099744;28;19920;-59
2023/04/17 06:44:30;;;;;;;;;;;8.80;99.90;;;;;;5099278;28;19938;-59
2023/04/17 06:46:57;;;;;;;;;;;9.00;99.90;;;;;;5099432;28;19944;-59
2023/04/17 06:49:23;;;;;;;;;;;9.00;99.90;;;;;;5099209;28;19908;-59
2023/04/17 06:51:50;;;;;;;;;;;9.10;99.90;;;;;;5097850;28;19915;-59
2023/04/17 06:54:16;;;;;;;;;;;9.20;99.90;;;;;;5098905;28;20401;-59
2023/04/17 06:56:41;;;;;;;;;;;9.30;99.90;;;;;;5099169;28;19931;-59
2023/04/17 06:59:08;;;;;;;;;;;9.30;99.90;;;;;;5099059;28;19930;-59
2023/04/17 07:01:34;;;;;;;;;;;9.50;99.90;;;;;;5099334;28;19931;-59
2023/04/17 07:04:00;;;;;;;;;;;9.70;99.90;;;;;;5098706;28;19962;-59
2023/04/17 07:06:27;;;;;;;;;;;9.80;99.90;;;;;;5099109;28;19923;-59
2023/04/17 07:08:53;;;;;;;;;;;9.80;99.90;;;;;;5098860;28;19951;-59
2023/04/17 07:11:18;;;;;;;;;;;10.00;99.90;;;;;;5099111;28;19908;-59
2023/04/17 07:13:44;;;;;;;;;;;10.10;99.90;;;;;;5098637;28;19908;-59
2023/04/17 07:16:10;;;;;;;;;;;10.10;99.90;;;;;;5099018;28;20259;-59
2023/04/17 07:18:36;;;;;;;;;;;10.10;99.90;;;;;;5098770;28;19915;-59
2023/04/17 07:21:01;;;;;;;;;;;10.10;99.90;;;;;;5098521;28;19908;-59
2023/04/17 07:23:27;;;;;;;;;;;10.10;99.90;;;;;;5098318;28;19923;-59
2023/04/17 07:25:53;;;;;;;;;;;10.20;99.90;;;;;;5098503;28;19914;-59
2023/04/17 07:28:18;;;;;;;;;;;10.30;99.90;;;;;;5098639;28;19915;-59
2023/04/17 07:30:45;;;;;;;;;;;10.40;99.90;;;;;;5098697;28;20379;-59
2023/04/17 07:33:10;;;;;;;;;;;10.40;99.90;;;;;;5098497;28;20006;-59
2023/04/17 07:35:36;;;;;;;;;;;10.60;99.90;;;;;;5098347;28;19970;-59
2023/04/17 07:38:03;;;;;;;;;;;10.60;99.90;;;;;;5098266;28;19908;-59
2023/04/17 07:40:29;;;;;;;;;;;10.70;99.90;;;;;;5098276;28;19908;-59
2023/04/17 07:42:55;;;;;;;;;;;10.80;99.90;;;;;;5098580;28;19995;-59
2023/04/17 07:45:21;;;;;;;;;;;10.90;99.90;;;;;;5097866;28;19963;-59
2023/04/17 07:47:47;;;;;;;;;;;10.90;99.90;;;;;;5098523;28;19908;-59
2023/04/17 07:50:13;;;;;;;;;;;11.10;99.90;;;;;;5098280;28;20248;-59
2023/04/17 07:52:38;;;;;;;;;;;11.20;99.90;;;;;;5098197;28;19935;-59
2023/04/17 07:55:05;;;;;;;;;;;11.20;99.90;;;;;;5098116;28;19908;-59
2023/04/17 07:57:31;;;;;;;;;;;11.30;99.90;;;;;;5097916;28;19908;-59
2023/04/17 07:59:57;;;;;;;;;;;11.40;99.90;;;;;;5098422;28;19912;-59
2023/04/17 08:02:23;;;;;;;;;;;11.60;99.90;;;;;;5097991;28;20030;-59
2023/04/17 08:04:50;;;;;;;;;;;11.70;99.90;;;;;;5098008;28;20389;-59
2023/04/17 08:07:17;;;;;;;;;;;11.70;99.90;;;;;;5097943;28;19908;-59
2023/04/17 08:09:43;;;;;;;;;;;12.00;99.90;;;;;;5097949;28;19912;-59
2023/04/17 08:12:08;;;;;;;;;;;12.00;99.90;;;;;;5098162;28;19917;-59
2023/04/17 08:14:34;;;;;;;;;;;12.10;99.90;;;;;;5097818;28;19908;-59
2023/04/17 08:17:00;;;;;;;;;;;12.20;99.90;;;;;;5097783;28;19934;-59
2023/04/17 08:19:26;;;;;;;;;;;12.30;99.90;;;;;;5097620;28;19912;-59
2023/04/17 08:21:59;;;;;;;;;;;12.40;99.90;;;;;;5097520;28;19908;-59
2023/04/17 08:24:24;;;;;;;;;;;12.50;99.90;;;;;;5097378;28;20390;-59
2023/04/17 08:26:50;;;;;;;;;;;12.70;99.90;;;;;;5097781;28;19920;-59
2023/04/17 08:29:16;;;;;;;;;;;12.70;99.90;;;;;;5097700;28;19957;-59
2023/04/17 08:31:41;;;;;;;;;;;12.80;99.90;;;;;;5097865;28;19947;-59
2023/04/17 08:34:07;;;;;;;;;;;12.90;99.90;;;;;;5097571;28;19915;-59
2023/04/17 08:36:32;;;;;;;;;;;13.10;99.90;;;;;;5097408;28;19916;-59
2023/04/17 08:38:58;;;;;;;;;;;13.30;99.90;;;;;;5098014;28;19908;-59
2023/04/17 08:41:28;;;;;;;;;;;13.40;99.90;;;;;;5097718;28;19908;-59
2023/04/17 08:43:55;;;;;;;;;;;13.60;99.90;;;;;;5097644;28;19916;-59
2023/04/17 08:46:23;;;;;;;;;;;13.80;99.90;;;;;;5097716;28;19930;-59
2023/04/17 08:48:49;;;;;;;;;;;13.90;99.90;;;;;;5097547;28;20367;-59
2023/04/17 08:51:14;;;;;;;;;;;14.30;99.90;;;;;;5097612;28;19931;-59
2023/04/17 08:53:40;;;;;;;;;;;14.50;99.90;;;;;;5097444;28;20003;-59
2023/04/17 08:56:06;;;;;;;;;;;14.70;99.90;;;;;;5097246;28;20350;-59
2023/04/17 08:58:32;;;;;;;;;;;15.10;99.90;;;;;;5097479;28;20356;-59
2023/04/17 09:01:06;;;;;;;;;;;15.30;99.90;;;;;;5097601;28;19916;-59
2023/04/17 09:03:38;;;;;;;;;;;15.60;99.90;;;;;;5100123;28;19908;-59
2023/04/17 09:06:04;;;;;;;;;;;15.80;99.90;;;;;;5101381;28;19908;-59
2023/04/17 09:08:29;;;;;;;;;;;15.90;99.90;;;;;;5100802;28;19959;-59
2023/04/17 09:10:55;;;;;;;;;;;16.10;99.90;;;;;;5100774;28;20287;-59
2023/04/17 09:13:23;;;;;;;;;;;16.30;99.90;;;;;;5100744;28;20248;-60
2023/04/17 09:16:04;;;;;;;;;;;16.70;99.90;;;;;;5100678;28;19913;-60
2023/04/17 09:18:30;;;;;;;;;;;16.80;99.90;;;;;;5101157;28;19957;-59
2023/04/17 09:20:58;;;;;;;;;;;17.10;99.90;;;;;;5101032;28;20267;-60
2023/04/17 09:23:28;;;;;;;;;;;17.40;99.90;;;;;;5100728;28;20374;-60
2023/04/17 09:26:06;;;;;;;;;;;17.40;99.90;;;;;;5100131;28;19912;-60
2023/04/17 09:28:38;;;;;;;;;;;17.80;99.90;;;;;;5099187;28;19912;-59
2023/04/17 09:31:05;;;;;;;;;;;18.00;99.90;;;;;;5100808;28;19908;-60
2023/04/17 09:33:30;;;;;;;;;;;18.20;99.90;;;;;;5100455;28;19983;-60
2023/04/17 09:36:16;;;;;;;;;;;18.40;99.90;;;;;;5098986;28;19916;-60
2023/04/17 09:38:43;;;;;;;;;;;18.50;99.90;;;;;;5100721;28;19909;-60
2023/04/17 09:41:26;;;;;;;;;;;18.80;99.90;;;;;;5100550;28;19915;-60
2023/04/17 09:43:56;;;;;;;;;;;19.30;99.90;;;;;;5100135;28;19915;-60
2023/04/17 09:46:44;;;;;;;;;;;19.50;98.10;;;;;;5100515;28;19915;-59
2023/04/17 09:49:24;;;;;;;;;;;19.70;98.20;;;;;;5100132;28;19912;-59
2023/04/17 09:51:51;;;;;;;;;;;20.00;96.20;;;;;;5100189;28;19912;-60
2023/04/17 09:54:18;;;;;;;;;;;20.30;99.90;;;;;;5100123;28;19915;-60
2023/04/17 09:56:46;;;;;;;;;;;20.70;97.10;;;;;;5100081;28;19928;-60
2023/04/17 09:59:12;;;;;;;;;;;20.80;96.00;;;;;;5099770;28;19912;-60
2023/04/17 10:01:39;;;;;;;;;;;20.90;86.10;;;;;;5100405;28;20318;-60
2023/04/17 10:04:05;;;;;;;;;;;21.20;99.90;;;;;;5100108;28;19961;-59
2023/04/17 10:06:31;;;;;;;;;;;21.60;93.30;;;;;;5099832;28;19912;-60
2023/04/17 10:08:57;;;;;;;;;;;21.40;84.40;;;;;;5099842;28;19912;-59
2023/04/17 10:11:32;;;;;;;;;;;21.10;90.60;;;;;;5100086;28;19953;-60
2023/04/17 10:14:09;;;;;;;;;;;21.80;90.30;;;;;;5098896;28;19912;-60
2023/04/17 10:16:39;;;;;;;;;;;22.40;81.50;;;;;;5099944;28;19909;-60
2023/04/17 10:19:23;;;;;;;;;;;22.60;73.90;;;;;;5099852;28;19915;-60
2023/04/17 10:22:08;;;;;;;;;;;23.20;88.30;;;;;;5099434;28;20256;-60
2023/04/17 10:24:34;;;;;;;;;;;23.60;68.10;;;;;;5099700;28;19943;-60
2023/04/17 10:27:00;;;;;;;;;;;23.70;77.70;;;;;;5099291;28;19931;-60
2023/04/17 10:29:44;;;;;;;;;;;24.20;80.50;;;;;;5099435;28;19912;-60
2023/04/17 10:32:10;;;;;;;;;;;24.60;69.70;;;;;;5099509;28;19991;-60
2023/04/17 10:34:36;;;;;;;;;;;25.20;67.50;;;;;;5099527;28;20004;-60
2023/04/17 10:37:03;;;;;;;;;;;23.50;66.10;;;;;;5099326;28;19908;-57
2023/04/17 10:39:47;;;;;;;;;;;23.90;66.00;;;;;;5099177;28;19908;-59
2023/04/17 10:42:19;;;;;;;;;;;23.70;67.20;;;;;;5098206;28;20354;-59
2023/04/17 10:44:45;;;;;;;;;;;23.20;65.40;;;;;;5099244;28;19912;-59
2023/04/17 10:47:13;;;;;;;;;;;23.70;66.50;;;;;;5099057;28;20410;-59
2023/04/17 10:49:46;;;;;;;;;;;22.50;65.70;;;;;;5099398;28;19908;-59
2023/04/17 10:52:31;;;;;;;;;;;22.80;65.60;;;;;;5099195;28;19908;-59
2023/04/17 10:55:08;;;;;;;;;;;22.70;71.40;;;;;;5098760;28;19961;-59
2023/04/17 10:57:52;;;;;;;;;;;23.20;64.30;;;;;;5099291;28;19914;-59
2023/04/17 11:00:19;;;;;;;;;;;22.80;63.70;;;;;;5098851;28;20397;-59
2023/04/17 11:02:45;;;;;;;;;;;22.50;66.50;;;;;;5099043;28;19908;-59
2023/04/17 11:05:11;;;;;;;;;;;23.10;66.50;;;;;;5098396;28;19912;-59
2023/04/17 11:07:37;;;;;;;;;;;23.60;65.10;;;;;;5098968;28;19915;-59
2023/04/17 11:10:06;;;;;;;;;;;24.00;64.50;;;;;;5098855;28;20422;-59
2023/04/17 11:12:31;;;;;;;;;;;23.00;61.70;;;;;;5099141;28;19958;-59
2023/04/17 11:15:04;;;;;;;;;;;23.20;64.90;;;;;;5098967;28;19912;-59
2023/04/17 11:17:29;;;;;;;;;;;23.40;61.10;;;;;;5098992;28;19912;-58
2023/04/17 11:19:55;;;;;;;;;;;22.80;62.70;;;;;;5098738;28;20010;-59
2023/04/17 11:22:21;;;;;;;;;;;22.80;64.90;;;;;;5098446;28;19915;-59
2023/04/17 11:24:49;;;;;;;;;;;23.90;63.80;;;;;;5098242;28;19918;-59
2023/04/17 11:27:15;;;;;;;;;;;23.30;63.30;;;;;;5098554;28;19920;-58
2023/04/17 11:29:40;;;;;;;;;;;22.60;64.40;;;;;;5098686;28;19976;-58
2023/04/17 11:32:09;;;;;;;;;;;22.90;64.70;;;;;;5098643;28;20290;-59
2023/04/17 11:34:35;;;;;;;;;;;22.90;62.90;;;;;;5097199;28;19951;-59
2023/04/17 11:37:02;;;;;;;;;;;22.70;63.60;;;;;;5098347;28;19908;-59
2023/04/17 11:39:29;;;;;;;;;;;22.30;63.80;;;;;;5098356;28;20364;-58
2023/04/17 11:41:57;;;;;;;;;;;22.30;65.50;;;;;;5098191;28;20387;-58
2023/04/17 11:44:23;;;;;;;;;;;22.10;64.40;;;;;;5098233;28;19912;-58
2023/04/17 11:46:50;;;;;;;;;;;22.40;66.10;;;;;;5098807;28;19931;-59
2023/04/17 11:49:22;;;;;;;;;;;22.00;65.70;;;;;;5098239;28;19914;-59
2023/04/17 11:51:47;;;;;;;;;;;21.90;65.70;;;;;;5098745;28;19908;-58
2023/04/17 11:54:36;;;;;;;;;;;21.40;66.00;;;;;;5098193;28;19908;-58
2023/04/17 11:57:06;;;;;;;;;;;21.30;63.80;;;;;;5092445;28;19933;-58
2023/04/17 11:59:36;;;;;;;;;;;21.20;63.40;;;;;;5097915;28;20389;-59
2023/04/17 12:02:02;;;;;;;;;;;20.70;63.00;;;;;;5098328;28;19930;-58
2023/04/17 12:04:32;;;;;;;;;;;21.10;64.70;;;;;;5097819;28;20022;-58
2023/04/17 12:06:58;;;;;;;;;;;21.30;64.50;;;;;;5098215;28;19919;-59
2023/04/17 12:09:26;;;;;;;;;;;20.90;65.10;;;;;;5098200;28;20394;-59
2023/04/17 12:11:52;;;;;;;;;;;20.90;65.10;;;;;;5098174;28;19958;-58
2023/04/17 12:14:18;;;;;;;;;;;21.10;65.60;;;;;;5098074;28;19912;-59
2023/04/17 12:16:48;;;;;;;;;;;21.40;65.50;;;;;;5097825;28;19916;-58
2023/04/17 12:19:15;;;;;;;;;;;21.10;62.70;;;;;;5097609;28;19915;-58
2023/04/17 12:21:42;;;;;;;;;;;20.90;64.10;;;;;;5097834;28;19915;-58
2023/04/17 12:24:08;;;;;;;;;;;21.00;65.30;;;;;;5097830;28;19912;-58
2023/04/17 12:26:34;;;;;;;;;;;21.40;65.90;;;;;;5097718;28;19920;-58
2023/04/17 12:29:00;;;;;;;;;;;21.40;66.30;;;;;;5098076;28;19918;-59
2023/04/17 12:31:25;;;;;;;;;;;21.80;66.80;;;;;;5097765;28;19971;-59
2023/04/17 12:33:51;;;;;;;;;;;22.70;65.70;;;;;;5097899;28;19909;-59
2023/04/17 12:36:17;;;;;;;;;;;23.40;64.30;;;;;;5097878;28;19999;-59
2023/04/17 12:38:43;;;;;;;;;;;22.90;62.60;;;;;;5101221;28;20379;-58
2023/04/17 12:41:09;;;;;;;;;;;21.80;62.70;;;;;;5101978;28;19930;-59
2023/04/17 12:43:34;;;;;;;;;;;21.60;63.90;;;;;;5101905;28;19908;-58
2023/04/17 12:46:01;;;;;;;;;;;21.70;63.70;;;;;;5101626;28;19965;-58
2023/04/17 12:48:26;;;;;;;;;;;21.20;64.50;;;;;;5101593;28;19983;-58
2023/04/17 12:50:53;;;;;;;;;;;20.70;65.30;;;;;;5101472;28;20332;-59
2023/04/17 12:53:19;;;;;;;;;;;20.30;64.40;;;;;;5101603;28;20382;-58
2023/04/17 12:55:44;;;;;;;;;;;20.40;64.70;;;;;;5101743;28;19908;-59
2023/04/17 12:58:10;;;;;;;;;;;20.50;65.00;;;;;;5101492;28;20359;-58
2023/04/17 13:00:37;;;;;;;;;;;20.70;66.50;;;;;;5101669;28;19908;-58
2023/04/17 13:03:03;;;;;;;;;;;20.90;67.50;;;;;;5101388;28;19964;-58
2023/04/17 13:05:29;;;;;;;;;;;21.50;65.00;;;;;;5101231;28;20320;-59
2023/04/17 13:07:55;;;;;;;;;;;21.20;65.70;;;;;;5101085;28;19908;-58
2023/04/17 13:10:21;;;;;;;;;;;21.50;66.40;;;;;;5101309;28;19908;-59
2023/04/17 13:12:47;;;;;;;;;;;22.40;63.80;;;;;;5101689;28;19908;-58
2023/04/17 13:15:13;;;;;;;;;;;22.40;62.50;;;;;;5101309;28;19912;-58
2023/04/17 13:17:39;;;;;;;;;;;21.50;62.80;;;;;;5101018;28;20003;-58
2023/04/17 13:20:05;;;;;;;;;;;22.10;64.60;;;;;;5101055;28;19912;-59
2023/04/17 13:22:31;;;;;;;;;;;22.50;62.70;;;;;;5100783;28;19908;-59
2023/04/17 13:25:00;;;;;;;;;;;22.40;62.00;;;;;;5100812;28;19961;-58
2023/04/17 13:27:26;;;;;;;;;;;22.20;60.30;;;;;;5100743;28;19920;-58
2023/04/17 13:29:53;;;;;;;;;;;22.30;61.80;;;;;;5101310;28;20275;-58
2023/04/17 13:32:18;;;;;;;;;;;22.00;61.40;;;;;;5100905;28;19963;-58
2023/04/17 13:34:44;;;;;;;;;;;21.50;62.10;;;;;;5100702;28;19916;-58
2023/04/17 13:37:09;;;;;;;;;;;21.30;61.90;;;;;;5100892;28;19919;-58
2023/04/17 13:39:35;;;;;;;;;;;21.10;61.90;;;;;;5100675;28;19908;-58
2023/04/17 13:42:01;;;;;;;;;;;21.30;62.50;;;;;;5101086;28;20347;-58
2023/04/17 13:44:27;;;;;;;;;;;20.60;62.60;;;;;;5100490;28;19912;-58
2023/04/17 13:46:53;;;;;;;;;;;20.80;63.70;;;;;;5100402;28;19916;-58
2023/04/17 13:49:19;;;;;;;;;;;20.60;64.20;;;;;;5100706;28;19915;-59
2023/04/17 13:51:45;;;;;;;;;;;21.20;62.60;;;;;;5100518;28;19909;-58
2023/04/17 13:54:10;;;;;;;;;;;21.80;62.50;;;;;;5101238;28;19912;-58
2023/04/17 13:56:36;;;;;;;;;;;22.00;61.50;;;;;;5100422;28;19908;-58
2023/04/17 13:59:02;;;;;;;;;;;22.00;60.50;;;;;;5100524;28;19916;-58
2023/04/17 14:01:28;;;;;;;;;;;21.60;62.30;;;;;;5100437;28;19908;-58
2023/04/17 14:03:53;;;;;;;;;;;21.50;60.80;;;;;;5100229;28;19923;-58
2023/04/17 14:06:19;;;;;;;;;;;21.30;61.10;;;;;;5099920;28;19951;-58
2023/04/17 14:08:45;;;;;;;;;;;21.00;61.30;;;;;;5100343;28;19916;-59
2023/04/17 14:11:11;;;;;;;;;;;20.70;61.30;;;;;;5100033;28;20410;-58
2023/04/17 14:13:36;;;;;;;;;;;20.80;62.10;;;;;;5098646;28;19908;-58
2023/04/17 14:16:02;;;;;;;;;;;21.10;62.40;;;;;;5100158;28;19916;-58
2023/04/17 14:18:28;;;;;;;;;;;20.70;61.00;;;;;;5099858;28;19915;-59
2023/04/17 14:20:54;;;;;;;;;;;20.50;61.70;;;;;;5099521;28;20284;-59